createdAt,value
2022-07-31T00:02:08.109Z,101158.75
2022-07-31T00:04:34.945Z,101150.03
2022-07-31T00:07:02.053Z,101148.00
2022-07-31T00:09:53.504Z,101158.13
2022-07-31T00:12:17.603Z,101148.22
2022-07-31T00:14:45.069Z,101146.41
2022-07-31T00:17:11.810Z,101144.16
2022-07-31T00:19:38.532Z,101141.66
2022-07-31T00:22:05.186Z,101140.69
2022-07-31T00:24:31.766Z,101140.47
2022-07-31T00:26:58.528Z,101135.47
2022-07-31T00:29:25.903Z,101128.06
2022-07-31T00:31:53.214Z,101131.91
2022-07-31T00:34:19.987Z,101135.59
2022-07-31T00:36:46.730Z,101131.66
2022-07-31T00:39:13.529Z,101130.56
2022-07-31T00:41:43.040Z,101133.66
2022-07-31T00:44:12.396Z,101140.59
2022-07-31T00:46:40.514Z,101135.47
2022-07-31T00:49:10.022Z,101134.88
2022-07-31T00:51:38.406Z,101135.25
2022-07-31T00:54:06.147Z,101138.59
2022-07-31T00:56:32.792Z,101134.06
2022-07-31T00:58:59.977Z,101138.09
2022-07-31T01:01:27.617Z,101141.56
2022-07-31T01:03:54.553Z,101134.63
2022-07-31T01:06:21.149Z,101140.59
2022-07-31T01:08:48.539Z,101142.38
2022-07-31T01:11:28.067Z,101138.22
2022-07-31T01:13:58.546Z,101140.25
2022-07-31T01:16:30.611Z,101146.25
2022-07-31T01:18:58.954Z,101150.66
2022-07-31T01:21:34.296Z,101150.53
2022-07-31T01:24:24.639Z,101150.41
2022-07-31T01:27:20.694Z,101145.38
2022-07-31T01:29:53.553Z,101152.94
2022-07-31T01:32:33.402Z,101150.41
2022-07-31T01:35:24.866Z,101148.97
2022-07-31T01:37:58.716Z,101143.84
2022-07-31T01:40:35.706Z,101140.50
2022-07-31T01:43:07.912Z,101147.56
2022-07-31T01:45:36.689Z,101142.09
2022-07-31T01:48:05.157Z,101142.31
2022-07-31T01:50:43.870Z,101145.91
2022-07-31T01:53:15.169Z,101139.94
2022-07-31T01:56:02.217Z,101138.72
2022-07-31T01:58:35.266Z,101127.59
2022-07-31T02:01:09.321Z,101129.84
2022-07-31T02:03:43.712Z,101130.34
2022-07-31T02:06:16.143Z,101129.03
2022-07-31T02:08:48.935Z,101129.16
2022-07-31T02:11:19.274Z,101123.28
2022-07-31T02:13:47.454Z,101118.88
2022-07-31T02:16:16.636Z,101118.25
2022-07-31T02:18:43.484Z,101120.91
2022-07-31T02:21:15.224Z,101124.59
2022-07-31T02:23:41.928Z,101120.53
2022-07-31T02:26:09.784Z,101126.03
2022-07-31T02:28:40.698Z,101116.38
2022-07-31T02:31:11.342Z,101114.34
2022-07-31T02:33:40.089Z,101122.69
2022-07-31T02:36:07.411Z,101114.69
2022-07-31T02:38:35.345Z,101113.28
2022-07-31T02:41:05.013Z,101100.63
2022-07-31T02:43:34.902Z,101109.22
2022-07-31T02:46:12.669Z,101099.06
2022-07-31T02:48:40.395Z,101104.81
2022-07-31T02:51:09.820Z,101100.38
2022-07-31T02:53:37.891Z,101106.59
2022-07-31T02:56:09.805Z,101106.81
2022-07-31T02:58:41.813Z,101102.88
2022-07-31T03:01:14.318Z,101107.63
2022-07-31T03:03:43.049Z,101108.59
2022-07-31T03:06:11.071Z,101102.38
2022-07-31T03:08:38.231Z,101095.47
2022-07-31T03:11:05.615Z,101097.84
2022-07-31T03:13:34.911Z,101091.63
2022-07-31T03:16:04.210Z,101098.34
2022-07-31T03:18:31.754Z,101090.09
2022-07-31T03:20:58.768Z,101089.16
2022-07-31T03:23:27.923Z,101090.34
2022-07-31T03:26:04.322Z,101091.78
2022-07-31T03:28:33.213Z,101095.34
2022-07-31T03:30:59.984Z,101089.88
2022-07-31T03:33:29.872Z,101088.19
2022-07-31T03:35:56.604Z,101091.16
2022-07-31T03:38:39.222Z,101089.66
2022-07-31T03:41:17.651Z,101082.75
2022-07-31T03:43:48.482Z,101089.75
2022-07-31T03:46:23.738Z,101094.63
2022-07-31T03:48:52.651Z,101098.59
2022-07-31T03:51:20.491Z,101096.88
2022-07-31T03:53:48.571Z,101093.06
2022-07-31T03:56:36.493Z,101089.59
2022-07-31T03:59:04.157Z,101088.50
2022-07-31T04:01:57.455Z,101083.00
2022-07-31T04:04:27.424Z,101095.56
2022-07-31T04:07:00.229Z,101102.03
2022-07-31T04:09:27.190Z,101100.13
2022-07-31T04:11:53.877Z,101102.59
2022-07-31T04:14:21.210Z,101096.16
2022-07-31T04:16:48.208Z,101085.78
2022-07-31T04:19:15.146Z,101084.81
2022-07-31T04:21:41.788Z,101091.03
2022-07-31T04:24:08.980Z,101090.56
2022-07-31T04:26:58.596Z,101083.16
2022-07-31T04:29:32.087Z,101088.28
2022-07-31T04:31:58.754Z,101083.25
2022-07-31T04:34:32.840Z,101072.75
2022-07-31T04:36:59.620Z,101075.53
2022-07-31T04:39:26.318Z,101081.50
2022-07-31T04:41:53.045Z,101084.84
2022-07-31T04:44:20.678Z,101074.66
2022-07-31T04:47:01.949Z,101074.63
2022-07-31T04:49:32.565Z,101069.94
2022-07-31T04:52:02.385Z,101073.50
2022-07-31T04:54:29.974Z,101083.31
2022-07-31T04:56:58.592Z,101081.16
2022-07-31T04:59:59.433Z,101082.47
2022-07-31T05:02:12.596Z,101087.44
2022-07-31T05:04:39.679Z,101088.03
2022-07-31T05:07:06.327Z,101088.75
2022-07-31T05:09:36.338Z,101083.28
2022-07-31T05:12:05.550Z,101087.09
2022-07-31T05:14:32.573Z,101082.03
2022-07-31T05:16:59.324Z,101078.88
2022-07-31T05:19:31.291Z,101079.34
2022-07-31T05:22:16.619Z,101081.28
2022-07-31T05:25:02.865Z,101087.44
2022-07-31T05:27:29.538Z,101086.91
2022-07-31T05:29:58.800Z,101080.56
2022-07-31T05:32:25.386Z,101085.00
2022-07-31T05:34:52.386Z,101084.72
2022-07-31T05:37:20.041Z,101083.13
2022-07-31T05:39:46.750Z,101088.13
2022-07-31T05:42:33.605Z,101091.19
2022-07-31T05:45:23.378Z,101076.63
2022-07-31T05:47:50.152Z,101078.28
2022-07-31T05:50:17.830Z,101078.69
2022-07-31T05:52:45.694Z,101084.41
2022-07-31T05:55:27.537Z,101082.94
2022-07-31T05:57:54.184Z,101083.81
2022-07-31T06:00:21.060Z,101088.28
2022-07-31T06:02:48.217Z,101089.16
2022-07-31T06:05:35.387Z,101083.09
2022-07-31T06:08:02.306Z,101083.66
2022-07-31T06:10:33.954Z,101078.25
2022-07-31T06:13:00.747Z,101066.47
2022-07-31T06:15:27.478Z,101076.19
2022-07-31T06:17:54.756Z,101065.66
2022-07-31T06:20:28.863Z,101084.09
2022-07-31T06:22:55.764Z,101070.50
2022-07-31T06:25:24.852Z,101079.25
2022-07-31T06:27:59.316Z,101076.63
2022-07-31T06:30:27.968Z,101079.53
2022-07-31T06:32:55.216Z,101081.75
2022-07-31T06:35:21.993Z,101078.41
2022-07-31T06:38:11.963Z,101081.91
2022-07-31T06:40:58.505Z,101081.47
2022-07-31T06:43:34.535Z,101086.63
2022-07-31T06:46:19.883Z,101078.03
2022-07-31T06:49:24.758Z,101074.81
2022-07-31T06:51:52.148Z,101070.94
2022-07-31T06:54:19.141Z,101070.81
2022-07-31T06:56:46.501Z,101071.34
2022-07-31T06:59:13.151Z,101062.59
2022-07-31T07:01:50.328Z,101066.91
2022-07-31T07:04:17.029Z,101059.56
2022-07-31T07:06:43.794Z,101058.03
2022-07-31T07:09:11.493Z,101058.72
2022-07-31T07:11:39.401Z,101062.72
2022-07-31T07:14:06.337Z,101056.50
2022-07-31T07:16:33.003Z,101056.91
2022-07-31T07:18:59.721Z,101054.94
2022-07-31T07:21:26.458Z,101048.53
2022-07-31T07:23:53.188Z,101045.16
2022-07-31T07:26:49.046Z,101049.47
2022-07-31T07:29:15.828Z,101045.72
2022-07-31T07:31:44.642Z,101042.28
2022-07-31T07:34:11.994Z,101048.78
2022-07-31T07:36:38.609Z,101060.00
2022-07-31T07:39:17.604Z,101062.88
2022-07-31T07:41:45.419Z,101047.41
2022-07-31T07:44:12.195Z,101052.53
2022-07-31T07:46:38.835Z,101062.53
2022-07-31T07:49:07.446Z,101054.72
2022-07-31T07:51:58.755Z,101057.91
2022-07-31T07:54:47.116Z,101046.91
2022-07-31T07:57:32.606Z,101047.41
2022-07-31T08:00:07.886Z,101039.63
2022-07-31T08:02:45.001Z,101035.53
2022-07-31T08:05:32.313Z,101030.03
2022-07-31T08:07:59.698Z,101025.56
2022-07-31T08:10:44.734Z,101029.09
2022-07-31T08:13:17.992Z,101023.97
2022-07-31T08:16:03.505Z,101016.53
2022-07-31T08:18:33.629Z,101011.09
2022-07-31T08:21:00.286Z,101014.34
2022-07-31T08:23:27.749Z,101013.13
2022-07-31T08:25:55.343Z,101006.56
2022-07-31T08:28:25.844Z,100998.97
2022-07-31T08:30:53.989Z,100996.88
2022-07-31T08:33:22.122Z,100988.13
2022-07-31T08:35:54.434Z,100991.78
2022-07-31T08:38:21.351Z,100986.78
2022-07-31T08:41:07.431Z,100990.81
2022-07-31T08:44:00.332Z,100991.50
2022-07-31T08:46:22.147Z,100985.25
2022-07-31T08:48:53.458Z,100986.59
2022-07-31T08:51:22.581Z,100988.81
2022-07-31T08:54:16.114Z,100982.34
2022-07-31T08:56:43.115Z,100984.06
2022-07-31T08:59:09.875Z,100994.25
2022-07-31T09:01:38.839Z,100991.53
2022-07-31T09:04:05.717Z,100981.72
2022-07-31T09:06:33.408Z,100982.34
2022-07-31T09:09:00.189Z,100979.91
2022-07-31T09:11:27.265Z,100986.81
2022-07-31T09:14:04.927Z,100982.88
2022-07-31T09:16:49.046Z,100978.31
2022-07-31T09:19:53.117Z,100972.78
2022-07-31T09:22:21.886Z,100977.41
2022-07-31T09:24:49.749Z,100977.81
2022-07-31T09:27:17.833Z,100983.81
2022-07-31T09:29:46.966Z,100977.03
2022-07-31T09:32:43.261Z,100976.84
2022-07-31T09:35:15.640Z,100971.88
2022-07-31T09:37:47.167Z,100973.38
2022-07-31T09:40:55.386Z,100978.00
2022-07-31T09:43:59.768Z,100978.47
2022-07-31T09:46:27.596Z,100979.16
2022-07-31T09:49:00.703Z,100977.91
2022-07-31T09:51:41.423Z,100970.38
2022-07-31T09:54:21.195Z,100988.97
2022-07-31T09:57:11.121Z,100981.53
2022-07-31T09:59:40.581Z,100986.84
2022-07-31T10:02:09.185Z,100982.56
2022-07-31T10:04:38.769Z,100981.81
2022-07-31T10:07:08.505Z,100970.06
2022-07-31T10:09:40.062Z,100978.03
2022-07-31T10:12:22.839Z,100977.38
2022-07-31T10:14:53.637Z,100976.34
2022-07-31T10:17:27.256Z,100977.38
2022-07-31T10:20:21.740Z,100973.16
2022-07-31T10:23:15.646Z,100966.34
2022-07-31T10:25:53.559Z,100966.00
2022-07-31T10:28:22.056Z,100969.25
2022-07-31T10:30:49.219Z,100960.91
2022-07-31T10:33:41.848Z,100973.84
2022-07-31T10:36:35.338Z,100965.91
2022-07-31T10:39:21.600Z,100968.81
2022-07-31T10:42:13.169Z,100965.31
2022-07-31T10:44:48.866Z,100968.41
2022-07-31T10:47:20.973Z,100951.91
2022-07-31T10:50:06.966Z,100960.94
2022-07-31T10:52:54.207Z,100953.41
2022-07-31T10:55:32.415Z,100942.47
2022-07-31T10:58:22.636Z,100946.91
2022-07-31T11:01:09.271Z,100943.09
2022-07-31T11:04:04.758Z,100932.56
2022-07-31T11:06:51.774Z,100931.53
2022-07-31T11:09:51.272Z,100933.00
2022-07-31T11:13:04.953Z,100929.84
2022-07-31T11:16:03.639Z,100925.50
2022-07-31T11:18:57.798Z,100915.41
2022-07-31T11:21:39.899Z,100926.66
2022-07-31T11:24:27.087Z,100926.31
2022-07-31T11:26:58.495Z,100921.94
2022-07-31T11:30:00.509Z,100928.63
2022-07-31T11:32:25.963Z,100919.84
2022-07-31T11:34:55.371Z,100918.59
2022-07-31T11:37:46.163Z,100920.72
2022-07-31T11:40:18.602Z,100913.84
2022-07-31T11:42:46.236Z,100910.25
2022-07-31T11:45:15.184Z,100909.28
2022-07-31T11:48:11.956Z,100906.25
2022-07-31T11:50:44.652Z,100902.81
2022-07-31T11:53:12.775Z,100910.34
2022-07-31T11:55:50.442Z,100906.88
2022-07-31T11:58:19.393Z,100900.50
2022-07-31T12:00:53.971Z,100902.78
2022-07-31T12:03:24.565Z,100894.88
2022-07-31T12:05:52.477Z,100904.28
2022-07-31T12:08:20.412Z,100892.63
2022-07-31T12:10:47.764Z,100892.78
2022-07-31T12:13:17.075Z,100880.63
2022-07-31T12:16:06.566Z,100878.09
2022-07-31T12:18:48.727Z,100882.38
2022-07-31T12:21:16.409Z,100873.78
2022-07-31T12:23:51.885Z,100881.34
2022-07-31T12:26:27.893Z,100873.78
2022-07-31T12:29:00.706Z,100880.66
2022-07-31T12:31:29.745Z,100875.00
2022-07-31T12:33:56.649Z,100872.25
2022-07-31T12:36:23.430Z,100869.03
2022-07-31T12:39:01.557Z,100870.41
2022-07-31T12:41:29.983Z,100865.44
2022-07-31T12:44:14.533Z,100865.25
2022-07-31T12:46:41.969Z,100868.41
2022-07-31T12:49:09.366Z,100858.81
2022-07-31T12:51:44.856Z,100858.53
2022-07-31T12:54:16.929Z,100854.84
2022-07-31T12:56:44.888Z,100862.72
2022-07-31T12:59:12.156Z,100854.13
2022-07-31T13:01:38.928Z,100860.47
2022-07-31T13:04:08.035Z,100858.28
2022-07-31T13:06:45.086Z,100854.13
2022-07-31T13:09:11.800Z,100858.56
2022-07-31T13:11:46.074Z,100855.41
2022-07-31T13:14:18.631Z,100846.06
2022-07-31T13:16:46.403Z,100845.63
2022-07-31T13:19:13.688Z,100849.06
2022-07-31T13:21:48.128Z,100844.13
2022-07-31T13:24:20.956Z,100839.41
2022-07-31T13:26:49.285Z,100839.09
2022-07-31T13:29:16.644Z,100834.88
2022-07-31T13:31:43.635Z,100836.94
2022-07-31T13:34:10.501Z,100836.00
2022-07-31T13:36:38.774Z,100834.81
2022-07-31T13:39:07.421Z,100824.41
2022-07-31T13:41:35.520Z,100839.25
2022-07-31T13:44:02.990Z,100835.34
2022-07-31T13:46:30.290Z,100831.38
2022-07-31T13:48:59.316Z,100825.28
2022-07-31T13:51:28.997Z,100812.03
2022-07-31T13:53:56.098Z,100818.47
2022-07-31T13:56:36.808Z,100816.78
2022-07-31T13:59:08.665Z,100814.53
2022-07-31T14:02:04.538Z,100812.19
2022-07-31T14:04:23.881Z,100812.41
2022-07-31T14:06:51.744Z,100803.63
2022-07-31T14:09:19.251Z,100803.06
2022-07-31T14:11:45.992Z,100799.56
2022-07-31T14:14:15.123Z,100792.91
2022-07-31T14:16:49.057Z,100797.56
2022-07-31T14:19:15.693Z,100794.66
2022-07-31T14:21:55.900Z,100790.78
2022-07-31T14:24:24.795Z,100792.72
2022-07-31T14:26:53.576Z,100786.66
2022-07-31T14:29:20.244Z,100790.19
2022-07-31T14:31:46.914Z,100786.41
2022-07-31T14:34:13.575Z,100793.97
2022-07-31T14:36:40.302Z,100788.91
2022-07-31T14:39:06.924Z,100783.53
2022-07-31T14:41:33.570Z,100782.53
2022-07-31T14:44:00.529Z,100785.84
2022-07-31T14:46:27.143Z,100781.31
2022-07-31T14:48:53.934Z,100770.88
2022-07-31T14:51:20.674Z,100774.56
2022-07-31T14:53:47.898Z,100777.69
2022-07-31T14:56:17.292Z,100778.56
2022-07-31T14:58:58.200Z,100778.94
2022-07-31T15:01:26.761Z,100779.88
2022-07-31T15:03:57.582Z,100776.25
2022-07-31T15:06:48.707Z,100776.72
2022-07-31T15:09:11.323Z,100765.00
2022-07-31T15:11:57.490Z,100776.47
2022-07-31T15:14:25.115Z,100779.66
2022-07-31T15:16:51.843Z,100781.03
2022-07-31T15:19:18.555Z,100774.22
2022-07-31T15:22:09.936Z,100777.72
2022-07-31T15:24:32.757Z,100768.16
2022-07-31T15:26:59.847Z,100772.09
2022-07-31T15:30:05.196Z,100767.28
2022-07-31T15:32:13.559Z,100771.59
2022-07-31T15:34:40.160Z,100767.72
2022-07-31T15:37:07.480Z,100763.97
2022-07-31T15:39:34.412Z,100755.28
2022-07-31T15:42:01.994Z,100762.78
2022-07-31T15:44:29.002Z,100765.91
2022-07-31T15:46:55.688Z,100759.84
2022-07-31T15:49:22.317Z,100766.63
2022-07-31T15:51:49.129Z,100763.38
2022-07-31T15:54:18.101Z,100759.59
2022-07-31T15:56:47.059Z,100770.00
2022-07-31T15:59:13.801Z,100759.59
2022-07-31T16:01:40.524Z,100766.91
2022-07-31T16:04:16.484Z,100771.78
2022-07-31T16:06:48.832Z,100765.44
2022-07-31T16:09:17.308Z,100765.75
2022-07-31T16:12:02.903Z,100757.63
2022-07-31T16:14:30.790Z,100759.94
2022-07-31T16:16:57.594Z,100748.28
2022-07-31T16:19:27.562Z,100754.19
2022-07-31T16:21:58.054Z,100754.69
2022-07-31T16:24:24.730Z,100751.91
2022-07-31T16:26:51.369Z,100748.00
2022-07-31T16:29:59.722Z,100754.44
2022-07-31T16:32:07.918Z,100752.03
2022-07-31T16:34:34.569Z,100756.56
2022-07-31T16:37:01.208Z,100759.00
2022-07-31T16:39:27.801Z,100761.47
2022-07-31T16:41:55.315Z,100765.19
2022-07-31T16:44:22.081Z,100764.25
2022-07-31T16:46:54.212Z,100756.66
2022-07-31T16:49:35.352Z,100755.75
2022-07-31T16:52:04.214Z,100751.66
2022-07-31T16:54:31.074Z,100747.09
2022-07-31T16:56:57.716Z,100748.19
2022-07-31T16:59:24.381Z,100740.56
2022-07-31T17:01:57.855Z,100735.09
2022-07-31T17:04:26.530Z,100733.53
2022-07-31T17:06:53.182Z,100740.88
2022-07-31T17:09:20.257Z,100740.50
2022-07-31T17:11:49.038Z,100744.63
2022-07-31T17:14:18.153Z,100737.09
2022-07-31T17:16:48.010Z,100730.50
2022-07-31T17:19:42.760Z,100732.50
2022-07-31T17:22:11.542Z,100729.06
2022-07-31T17:24:38.974Z,100723.81
2022-07-31T17:27:09.725Z,100736.50
2022-07-31T17:29:39.647Z,100723.81
2022-07-31T17:32:07.010Z,100722.75
2022-07-31T17:34:35.417Z,100721.00
2022-07-31T17:37:02.483Z,100720.25
2022-07-31T17:39:31.225Z,100714.69
2022-07-31T17:41:58.674Z,100725.88
2022-07-31T17:44:25.304Z,100719.81
2022-07-31T17:46:52.688Z,100726.78
2022-07-31T17:49:20.795Z,100727.47
2022-07-31T17:51:57.802Z,100726.00
2022-07-31T17:54:27.885Z,100730.66
2022-07-31T17:56:54.639Z,100725.03
2022-07-31T17:59:21.471Z,100725.22
2022-07-31T18:01:51.426Z,100722.63
2022-07-31T18:04:18.442Z,100727.28
2022-07-31T18:06:45.293Z,100728.75
2022-07-31T18:09:12.060Z,100722.16
2022-07-31T18:11:38.768Z,100721.59
2022-07-31T18:14:05.363Z,100716.81
2022-07-31T18:16:31.965Z,100723.59
2022-07-31T18:18:58.709Z,100729.69
2022-07-31T18:21:25.347Z,100720.25
2022-07-31T18:23:52.173Z,100731.69
2022-07-31T18:26:18.798Z,100726.88
2022-07-31T18:28:45.398Z,100722.69
2022-07-31T18:31:24.181Z,100715.94
2022-07-31T18:33:58.842Z,100717.91
2022-07-31T18:36:26.489Z,100716.06
2022-07-31T18:38:53.155Z,100714.53
2022-07-31T18:41:20.731Z,100716.19
2022-07-31T18:43:47.430Z,100718.63
2022-07-31T18:46:14.194Z,100711.19
2022-07-31T18:48:40.872Z,100711.31
2022-07-31T18:51:07.571Z,100713.78
2022-07-31T18:53:34.342Z,100715.56
2022-07-31T18:56:01.071Z,100711.72
2022-07-31T18:58:27.725Z,100723.63
2022-07-31T19:00:56.630Z,100720.94
2022-07-31T19:03:25.667Z,100723.72
2022-07-31T19:05:53.049Z,100726.00
2022-07-31T19:08:20.678Z,100728.63
2022-07-31T19:10:49.446Z,100734.38
2022-07-31T19:13:19.083Z,100731.06
2022-07-31T19:15:51.479Z,100729.38
2022-07-31T19:18:18.738Z,100736.50
2022-07-31T19:21:00.420Z,100736.34
2022-07-31T19:23:41.734Z,100732.50
2022-07-31T19:26:08.710Z,100737.56
2022-07-31T19:28:36.352Z,100734.94
2022-07-31T19:31:06.469Z,100724.19
2022-07-31T19:33:35.585Z,100732.00
2022-07-31T19:36:03.225Z,100723.50
2022-07-31T19:38:35.811Z,100730.75
2022-07-31T19:41:02.812Z,100727.53
2022-07-31T19:43:29.965Z,100732.00
2022-07-31T19:46:09.712Z,100723.16
2022-07-31T19:48:41.474Z,100723.84
2022-07-31T19:51:09.501Z,100725.13
2022-07-31T19:53:36.231Z,100726.28
2022-07-31T19:56:05.764Z,100716.53
2022-07-31T19:58:36.447Z,100722.50
2022-07-31T20:01:06.042Z,100722.34
2022-07-31T20:03:33.367Z,100717.78
2022-07-31T20:06:00.328Z,100718.22
2022-07-31T20:08:27.098Z,100714.56
2022-07-31T20:11:03.506Z,100719.16
2022-07-31T20:13:33.926Z,100711.38
2022-07-31T20:16:01.213Z,100716.34
2022-07-31T20:18:29.027Z,100708.81
2022-07-31T20:20:58.750Z,100713.31
2022-07-31T20:23:26.568Z,100708.41
2022-07-31T20:25:53.695Z,100698.00
2022-07-31T20:28:20.639Z,100706.06
2022-07-31T20:30:47.315Z,100705.25
2022-07-31T20:33:13.923Z,100707.66
2022-07-31T20:35:49.213Z,100711.06
2022-07-31T20:38:18.179Z,100705.69
2022-07-31T20:40:48.238Z,100694.09
2022-07-31T20:43:21.389Z,100689.81
2022-07-31T20:45:48.330Z,100684.53
2022-07-31T20:48:17.716Z,100693.44
2022-07-31T20:50:48.253Z,100688.97
2022-07-31T20:53:19.282Z,100692.44
2022-07-31T20:55:47.479Z,100681.22
2022-07-31T20:58:14.308Z,100690.78
2022-07-31T21:00:42.001Z,100690.63
2022-07-31T21:03:08.666Z,100687.00
2022-07-31T21:05:35.408Z,100684.53
2022-07-31T21:08:02.166Z,100683.84
2022-07-31T21:10:29.691Z,100676.75
2022-07-31T21:12:56.917Z,100673.28
2022-07-31T21:15:42.899Z,100666.19
2022-07-31T21:18:18.619Z,100676.28
2022-07-31T21:20:51.810Z,100674.97
2022-07-31T21:23:24.655Z,100681.34
2022-07-31T21:25:52.618Z,100676.38
2022-07-31T21:28:19.747Z,100678.88
2022-07-31T21:30:47.160Z,100675.38
2022-07-31T21:33:14.148Z,100674.72
2022-07-31T21:35:41.521Z,100668.44
2022-07-31T21:38:12.559Z,100677.03
2022-07-31T21:40:40.315Z,100659.03
2022-07-31T21:43:07.731Z,100659.56
2022-07-31T21:45:50.898Z,100666.34
2022-07-31T21:48:23.168Z,100672.31
2022-07-31T21:50:50.286Z,100663.56
2022-07-31T21:53:16.946Z,100667.03
2022-07-31T21:55:43.907Z,100663.84
2022-07-31T21:58:10.724Z,100658.56
2022-07-31T22:00:37.669Z,100663.63
2022-07-31T22:03:05.197Z,100660.44
2022-07-31T22:05:50.683Z,100657.81
2022-07-31T22:08:18.146Z,100651.56
2022-07-31T22:10:44.893Z,100659.63
2022-07-31T22:13:12.134Z,100644.22
2022-07-31T22:15:55.476Z,100649.09
2022-07-31T22:18:27.039Z,100647.69
2022-07-31T22:20:54.166Z,100648.97
2022-07-31T22:23:21.040Z,100651.59
2022-07-31T22:25:51.377Z,100655.09
2022-07-31T22:28:20.779Z,100650.88
2022-07-31T22:30:47.903Z,100653.50
2022-07-31T22:33:14.636Z,100649.47
2022-07-31T22:35:41.545Z,100647.50
2022-07-31T22:38:09.337Z,100649.47
2022-07-31T22:40:36.125Z,100652.81
2022-07-31T22:43:03.478Z,100649.91
2022-07-31T22:45:30.303Z,100652.91
2022-07-31T22:47:57.907Z,100656.09
2022-07-31T22:50:24.824Z,100654.28
2022-07-31T22:52:52.019Z,100648.84
2022-07-31T22:55:21.783Z,100648.69
2022-07-31T22:57:48.483Z,100648.31
2022-07-31T23:00:18.290Z,100650.56
2022-07-31T23:02:45.912Z,100649.09
2022-07-31T23:05:12.766Z,100643.81
2022-07-31T23:07:39.486Z,100655.44
2022-07-31T23:10:07.558Z,100649.22
2022-07-31T23:12:34.686Z,100651.00
2022-07-31T23:15:01.325Z,100643.84
2022-07-31T23:17:28.031Z,100634.13
2022-07-31T23:19:54.915Z,100642.03
2022-07-31T23:22:33.798Z,100644.53
2022-07-31T23:25:10.273Z,100633.69
2022-07-31T23:27:36.915Z,100638.22
2022-07-31T23:30:04.329Z,100637.25
2022-07-31T23:32:31.008Z,100639.03
2022-07-31T23:34:57.746Z,100630.69
2022-07-31T23:37:24.418Z,100634.59
2022-07-31T23:39:51.033Z,100636.69
2022-07-31T23:42:36.282Z,100632.09
2022-07-31T23:45:03.373Z,100632.47
2022-07-31T23:47:45.581Z,100621.09
2022-07-31T23:50:15.057Z,100626.53
2022-07-31T23:52:42.609Z,100627.66
2022-07-31T23:55:09.705Z,100625.72
2022-07-31T23:57:36.566Z,100631.97
